Ana Sayfa
METAR-TAF:

METAR-TAF

Havaalanları :

Raton Municipal Airport (Crews Field)

Raton, New Mexico, Amerika Birleşik Devletleri

Enlem: 36-44-31N, Boylam: 104-39-28W, yükseklik: 1935 m

Güncel hava durumu gözlemi

Rapor saat 21:53 UTC de 26 dakika önce yapıldı.
Rüzgar kuzeydoğudan 15 kt ve 25 kt'a kadar ani rüzgarlar
Sıcaklık 2°C
Nem 55%
Basınç 1018 hPa
Görüş mesafesi: 16.1 km
2700 ft yükseklikte çok bulutlu

METAR: KRTN 162153Z AUTO 04015G25KT 10SM OVC027 02/M06 A3005 RMK AO2 PK WND 05031/2111 SLP176 T00171061

Saat: 16:19 (22:19 UTC)


TAF: eksik

4.000'den fazla havaalanı için hava durumu gözlemleri ve tahminleri (METAR ve TAF raporları).

Kullanılabilir istasyonlar harita üzerinde sarı ve kırmızı noktalarla gösterilir.

İstasyonun adını görmek için fareyi noktanın üzerinde gezdirin.

Sonrasında hava gözlem ve tahminlerini görmek için tıklayın.

Haritayı değiştirmek için: yaklaştırmak için siyah artı işaretli yeşil düğmeye ve uzaklaştırmak için de eksi işaretli düğmeye hızla tıklayın; bitişik haritalar için yeşil okları kullanın.


METAR-TAF: